General Aviation Weather

Text Reports

Enter one or more of the following location identifiers separated by a space:

Zip Code, Four-Character ICAO or Three-Character IATA airport codes.

METAR - Aviation Routine Weather Report
KASW - Warsaw, Indiana
Updated at 1:55 PM GMT on July 28, 2014 (9:55 AM EDT):
METAR KASW 281355Z AUTO 33005KT 10SM OVC013 16/13 A2997 RMK AO2
TAF - Terminal Area Forecast
KASW - Warsaw, Indiana
Updated at 1:55 PM GMT on July 28, 2014 (9:55 AM EDT):
No TAF is currently available for this location.
Decoded:
No decoded TAF is available.
PIREP - Pilot Weather Report
KASW - Warsaw, Indiana
Updated at 1:55 PM GMT on July 28, 2014 (9:55 AM EDT):
No PIREP is currently available for this location.
AIRMET - Airmens Meteorological Information
KASW - Warsaw, Indiana
Updated at 1:55 PM GMT on July 28, 2014 (9:55 AM EDT):
No AIRMET is currently available for this location.
SIGMET - Significant Meteorological Information
KASW - Warsaw, Indiana
Updated at 1:55 PM GMT on July 28, 2014 (9:55 AM EDT):
No SIGMET is currently available for this location.
NOTAM - Notice to Airmen
KASW - Warsaw, Indiana
Updated at 1:55 PM GMT on July 28, 2014 (9:55 AM EDT):
No NOTAM is currently available for this location.
Forecast Area
KASW - Warsaw, Indiana
Updated at 1:55 PM GMT on July 28, 2014 (9:55 AM EDT):
No NOTAM is currently available for this location.
Aviation Weather Maps